ELLX/LUX METAR and TAF weather

Enter ICAO airport designator
Station Type Date Time Source
ELLX METAR 2022/06/29 00:20 UTC NOAA

ELLX 290020Z AUTO 05006KT 9999 OVC056/// 18/08 Q1017 NOSIG


Station Type Date Time Source
ELLX Decoded METAR 2022/06/29 00:20 UTC NOAA

Luxembourg / Luxembourg, Luxembourg (ELLX) 49-37N 006-13E 379M
Jun 28, 2022 - 08:20 PM EDT / 2022.06.29 0020 UTC
Wind: from the NE (050 degrees) at 7 MPH (6 KT):0
Visibility: greater than 7 mile(s):0
Sky conditions: overcast
Temperature: 64 F (18 C)
Dew Point: 46 F (8 C)
Relative Humidity: 51%
Pressure (altimeter): 30.03 in. Hg (1017 hPa)
ob: ELLX 290020Z AUTO 05006KT 9999 OVC056/// 18/08 Q1017 NOSIG
cycle: 0

Station Type Date Time Source
ELLX TAF 2022/06/28 18:27 UTC NOAA

TAF ELLX 281700Z 2818/2924 10006KT CAVOK
BECMG 2907/2909 27007KT

Example: see airport list